Time;durP1;ratioP1;P1;durP2;ratioP2;P2;SDS_P1;SDS_P2;PMS_P1;PMS_P2;Temp;Humidity;BMP_temperature;BMP_pressure;BME280_temperature;BME280_humidity;BME280_pressure;Samples;Min_cycle;Max_cycle;Signal;HPM_P1;HPM_P2
2023/09/03 00:04:45;;;;;;;;;;;;;;;;;;10082578;29;20060;-90
2023/09/03 00:09:49;;;;;;;0.60;0.32;;;;;;;;;;10089321;29;19928;-88
2023/09/03 00:14:55;;;;;;;0.47;0.30;;;;;;;;;;10090485;29;20101;-89
2023/09/03 00:19:59;;;;;;;0.47;0.38;;;;;;;;;;10090649;29;20708;-88
2023/09/03 00:25:04;;;;;;;2.70;0.40;;;;;;;;;;10087057;29;20120;-90
2023/09/03 00:30:11;;;;;;;3.08;0.40;;;;;;;;;;10090872;29;20534;-88
2023/09/03 00:35:15;;;;;;;0.30;0.30;;;;;;;;;;10088138;29;20056;-90
2023/09/03 00:40:20;;;;;;;2.75;0.40;;;;;;;;;;10085910;29;20101;-89
2023/09/03 00:45:25;;;;;;;1.08;0.35;;;;;;;;;;10089753;29;20037;-91
2023/09/03 00:50:30;;;;;;;1.60;0.40;;;;;;;;;;10085580;29;20053;-86
2023/09/03 00:55:37;;;;;;;0.50;0.38;;;;;;;;;;10080722;29;20430;-86
2023/09/03 01:00:42;;;;;;;2.28;0.40;;;;;;;;;;10082142;29;20475;-85
2023/09/03 01:05:45;;;;;;;0.47;0.32;;;;;;;;;;10077002;29;20068;-86
2023/09/03 01:10:59;;;;;;;0.60;0.30;;;;;;;;;;10080867;29;20045;-86
2023/09/03 01:16:08;;;;;;;0.65;0.30;;;;;;;;;;10064925;29;20132;-86
2023/09/03 01:21:36;;;;;;;0.20;0.20;;;;;;;;;;10081874;29;20100;-86
2023/09/03 01:26:57;;;;;;;1.40;0.32;;;;;;;;;;10073997;29;20101;-86
2023/09/03 01:32:03;;;;;;;1.55;0.50;;;;;;;;;;10078316;29;20169;-86
2023/09/03 01:37:07;;;;;;;1.55;0.30;;;;;;;;;;10070942;29;20049;-86
2023/09/03 01:42:10;;;;;;;0.43;0.30;;;;;;;;;;10078878;29;20779;-87
2023/09/03 01:47:28;;;;;;;0.55;0.28;;;;;;;;;;10078631;29;20415;-86
2023/09/03 01:52:39;;;;;;;3.78;0.32;;;;;;;;;;10079707;29;20048;-87
2023/09/03 01:57:47;;;;;;;0.28;0.28;;;;;;;;;;10080084;29;20037;-86
2023/09/03 02:02:53;;;;;;;1.55;0.50;;;;;;;;;;10080533;29;20079;-87
2023/09/03 02:07:56;;;;;;;0.47;0.40;;;;;;;;;;10079073;29;20045;-86
2023/09/03 02:13:00;;;;;;;0.22;0.22;;;;;;;;;;10094333;29;20487;-86
2023/09/03 02:18:05;;;;;;;1.50;0.40;;;;;;;;;;10072018;29;20071;-87
2023/09/03 02:23:08;;;;;;;0.30;0.30;;;;;;;;;;10078293;29;20440;-87
2023/09/03 02:28:12;;;;;;;0.30;0.30;;;;;;;;;;10070764;29;20352;-86
2023/09/03 02:33:23;;;;;;;0.52;0.30;;;;;;;;;;10076994;29;20041;-85
2023/09/03 02:38:26;;;;;;;1.42;0.40;;;;;;;;;;10076895;29;20100;-87
2023/09/03 02:43:30;;;;;;;1.75;0.40;;;;;;;;;;10077143;29;20640;-87
2023/09/03 02:48:36;;;;;;;4.03;0.50;;;;;;;;;;10067574;29;20113;-86
2023/09/03 02:53:41;;;;;;;1.02;0.47;;;;;;;;;;10074087;29;20041;-87
2023/09/03 02:58:46;;;;;;;2.15;0.40;;;;;;;;;;10075845;29;20045;-86
2023/09/03 03:03:51;;;;;;;1.85;0.30;;;;;;;;;;10077116;29;20090;-86
2023/09/03 03:08:54;;;;;;;1.55;0.40;;;;;;;;;;10075899;29;20124;-86
2023/09/03 03:13:58;;;;;;;2.53;0.40;;;;;;;;;;10076314;29;20067;-86
2023/09/03 03:19:08;;;;;;;0.35;0.30;;;;;;;;;;10067783;29;20696;-86
2023/09/03 03:24:13;;;;;;;0.63;0.40;;;;;;;;;;10072077;29;20156;-86
2023/09/03 03:29:17;;;;;;;0.88;0.30;;;;;;;;;;10070419;29;20057;-86
2023/09/03 03:34:27;;;;;;;2.97;0.40;;;;;;;;;;10082986;29;20431;-86
2023/09/03 03:39:34;;;;;;;0.40;0.40;;;;;;;;;;10085233;29;20689;-85
2023/09/03 03:44:38;;;;;;;1.58;0.30;;;;;;;;;;10085519;29;20085;-86
2023/09/03 03:49:43;;;;;;;0.93;0.30;;;;;;;;;;10085174;29;20048;-86
2023/09/03 03:54:48;;;;;;;1.92;0.30;;;;;;;;;;10085916;29;20148;-86
2023/09/03 03:59:51;;;;;;;3.10;0.35;;;;;;;;;;10086068;29;20037;-85
2023/09/03 04:04:56;;;;;;;0.25;0.20;;;;;;;;;;10084600;29;20101;-86
2023/09/03 04:10:00;;;;;;;0.20;0.20;;;;;;;;;;10083811;29;20629;-86
2023/09/03 04:15:04;;;;;;;0.45;0.30;;;;;;;;;;10084623;29;20039;-86
2023/09/03 04:20:11;;;;;;;0.57;0.43;;;;;;;;;;10083783;29;20586;-87
2023/09/03 04:25:17;;;;;;;0.90;0.30;;;;;;;;;;10082182;29;20041;-85
2023/09/03 04:30:21;;;;;;;1.23;0.55;;;;;;;;;;10077580;29;20112;-86
2023/09/03 04:35:26;;;;;;;9.32;0.50;;;;;;;;;;10084040;29;20538;-87
2023/09/03 04:40:32;;;;;;;0.43;0.43;;;;;;;;;;10084964;29;20057;-86
2023/09/03 04:45:35;;;;;;;;;;;;;;;;;;10082695;29;20455;-86
2023/09/03 04:50:40;;;;;;;1.58;0.63;;;;;;;;;;10080779;29;20370;-86
2023/09/03 04:55:44;;;;;;;2.47;0.70;;;;;;;;;;10078195;29;20706;-86
2023/09/03 05:06:20;;;;;;;1.15;0.70;;;;;;;;;;11528776;23;20388;-86
2023/09/03 05:11:27;;;;;;;4.43;0.70;;;;;;;;;;10060719;29;20067;-86
2023/09/03 05:16:30;;;;;;;1.00;0.40;;;;;;;;;;10045038;29;20050;-86
2023/09/03 05:21:35;;;;;;;0.35;0.35;;;;;;;;;;10049936;29;20132;-85
2023/09/03 05:26:39;;;;;;;1.52;0.70;;;;;;;;;;10054714;29;20045;-85
2023/09/03 05:31:42;;;;;;;2.67;0.90;;;;;;;;;;10058713;29;20097;-84
2023/09/03 05:36:47;;;;;;;2.17;1.20;;;;;;;;;;10041364;29;20125;-84
2023/09/03 05:41:52;;;;;;;3.40;1.55;;;;;;;;;;10042676;29;20038;-85
2023/09/03 05:46:55;;;;;;;2.67;1.50;;;;;;;;;;10042358;29;20771;-85
2023/09/03 05:52:00;;;;;;;3.47;1.77;;;;;;;;;;10040767;29;20046;-84
2023/09/03 05:57:04;;;;;;;3.47;1.92;;;;;;;;;;10042814;29;20044;-86
2023/09/03 06:02:08;;;;;;;4.03;1.67;;;;;;;;;;10045120;29;20045;-86
2023/09/03 06:07:13;;;;;;;3.30;2.00;;;;;;;;;;10044174;29;20041;-87
2023/09/03 06:12:16;;;;;;;3.13;2.15;;;;;;;;;;10043433;29;20128;-85
2023/09/03 06:17:19;;;;;;;3.42;2.40;;;;;;;;;;10043827;29;20046;-86
2023/09/03 06:22:24;;;;;;;4.68;2.38;;;;;;;;;;10044096;29;20133;-85
2023/09/03 06:27:27;;;;;;;4.32;2.00;;;;;;;;;;10047464;29;20044;-84
2023/09/03 06:32:32;;;;;;;5.15;1.77;;;;;;;;;;10033760;29;20137;-86
2023/09/03 06:37:36;;;;;;;3.70;2.10;;;;;;;;;;10055954;29;20125;-86
2023/09/03 06:42:40;;;;;;;2.47;2.03;;;;;;;;;;10033531;29;20109;-86
2023/09/03 06:47:43;;;;;;;2.42;1.80;;;;;;;;;;10025536;29;20045;-85
2023/09/03 06:52:48;;;;;;;1.85;1.52;;;;;;;;;;10026256;29;20106;-85
2023/09/03 06:57:51;;;;;;;2.50;1.73;;;;;;;;;;10036991;29;20124;-85
2023/09/03 07:02:55;;;;;;;2.25;1.50;;;;;;;;;;10040031;29;20045;-87
2023/09/03 07:07:59;;;;;;;2.60;2.00;;;;;;;;;;10041748;29;20069;-87
2023/09/03 07:13:03;;;;;;;3.03;1.40;;;;;;;;;;10040571;29;20499;-86
2023/09/03 07:18:07;;;;;;;1.73;1.58;;;;;;;;;;10041858;29;20065;-86
2023/09/03 07:23:11;;;;;;;2.33;1.88;;;;;;;;;;10048334;29;20061;-86
2023/09/03 07:28:16;;;;;;;2.20;1.90;;;;;;;;;;10038847;29;20042;-87
2023/09/03 07:33:19;;;;;;;2.20;1.75;;;;;;;;;;10039891;29;20172;-87
2023/09/03 07:38:25;;;;;;;3.13;2.38;;;;;;;;;;10040460;29;20053;-85
2023/09/03 07:43:29;;;;;;;2.10;1.77;;;;;;;;;;10047106;29;20054;-88
2023/09/03 07:48:32;;;;;;;2.40;1.92;;;;;;;;;;10039713;29;20045;-86
2023/09/03 07:53:37;;;;;;;2.45;1.73;;;;;;;;;;10044252;29;20080;-86
2023/09/03 07:58:42;;;;;;;2.70;2.03;;;;;;;;;;10037857;29;20046;-86
2023/09/03 08:03:45;;;;;;;2.15;1.88;;;;;;;;;;10031962;29;20151;-85
2023/09/03 08:08:54;;;;;;;1.92;1.70;;;;;;;;;;10040812;29;20038;-85
2023/09/03 08:13:59;;;;;;;2.65;1.80;;;;;;;;;;10043050;29;20045;-85
2023/09/03 08:19:03;;;;;;;1.90;1.70;;;;;;;;;;10045466;29;20124;-85
2023/09/03 08:24:09;;;;;;;3.80;1.65;;;;;;;;;;10057976;29;20049;-85
2023/09/03 08:29:13;;;;;;;2.08;1.88;;;;;;;;;;10051784;29;20046;-85
2023/09/03 08:34:16;;;;;;;1.15;1.02;;;;;;;;;;10047564;29;20100;-85
2023/09/03 08:39:21;;;;;;;2.20;1.25;;;;;;;;;;10043546;29;20046;-85
2023/09/03 08:44:29;;;;;;;1.40;1.30;;;;;;;;;;10044792;29;20198;-84
2023/09/03 08:49:34;;;;;;;4.80;3.85;;;;;;;;;;10055571;29;20058;-86
2023/09/03 08:54:39;;;;;;;2.72;2.45;;;;;;;;;;10041035;29;20140;-86
2023/09/03 08:59:43;;;;;;;5.50;4.20;;;;;;;;;;10040267;29;20073;-86
2023/09/03 09:04:46;;;;;;;2.88;2.47;;;;;;;;;;10039083;29;20085;-85
2023/09/03 09:09:53;;;;;;;2.90;2.50;;;;;;;;;;10033386;29;20041;-86
2023/09/03 09:15:00;;;;;;;4.50;3.60;;;;;;;;;;10036710;29;20049;-85
2023/09/03 09:20:05;;;;;;;8.98;5.97;;;;;;;;;;10039227;29;20125;-85
2023/09/03 09:25:17;;;;;;;4.18;3.03;;;;;;;;;;10038124;29;20081;-85
2023/09/03 09:30:25;;;;;;;3.10;2.50;;;;;;;;;;10035842;29;20625;-86
2023/09/03 09:35:28;;;;;;;3.67;2.72;;;;;;;;;;10045691;29;20488;-85
2023/09/03 09:40:34;;;;;;;4.20;3.10;;;;;;;;;;10035862;29;20140;-86
2023/09/03 09:45:48;;;;;;;3.65;3.13;;;;;;;;;;10037192;29;20057;-85
2023/09/03 09:50:51;;;;;;;5.22;3.90;;;;;;;;;;10039616;29;20136;-85
2023/09/03 09:56:00;;;;;;;4.90;3.38;;;;;;;;;;10037331;29;20077;-84
2023/09/03 10:01:03;;;;;;;2.92;2.63;;;;;;;;;;10040153;29;20124;-85
2023/09/03 10:06:07;;;;;;;3.53;2.78;;;;;;;;;;10052217;29;20109;-85
2023/09/03 10:11:12;;;;;;;2.42;2.22;;;;;;;;;;10046111;29;20044;-85
2023/09/03 10:16:19;;;;;;;2.80;2.42;;;;;;;;;;10034902;29;20144;-84
2023/09/03 10:21:24;;;;;;;4.25;2.88;;;;;;;;;;10032649;29;20061;-84
2023/09/03 10:26:42;;;;;;;4.03;3.30;;;;;;;;;;10027276;29;20053;-85
2023/09/03 10:31:46;;;;;;;2.85;2.35;;;;;;;;;;10035309;29;20114;-85
2023/09/03 10:37:06;;;;;;;2.55;2.30;;;;;;;;;;10042537;29;20128;-84
2023/09/03 10:42:30;;;;;;;2.70;2.45;;;;;;;;;;10046011;29;20145;-84
2023/09/03 10:47:53;;;;;;;3.00;2.08;;;;;;;;;;10039065;29;20061;-84
2023/09/03 10:52:57;;;;;;;2.53;2.33;;;;;;;;;;10030315;29;20078;-81
2023/09/03 10:58:31;;;;;;;4.10;2.67;;;;;;;;;;10039685;29;20501;-81
2023/09/03 11:03:46;;;;;;;2.33;1.77;;;;;;;;;;10038162;29;20627;-82
2023/09/03 11:09:06;;;;;;;2.13;1.77;;;;;;;;;;10034285;29;20559;-81
2023/09/03 11:14:11;;;;;;;1.52;1.42;;;;;;;;;;10035770;29;20136;-81
2023/09/03 11:19:14;;;;;;;1.30;1.20;;;;;;;;;;10040891;29;20128;-81
2023/09/03 11:24:18;;;;;;;1.10;1.00;;;;;;;;;;10035831;29;20384;-81
2023/09/03 11:29:24;;;;;;;1.45;1.35;;;;;;;;;;10037805;29;20106;-81
2023/09/03 11:34:29;;;;;;;1.15;1.02;;;;;;;;;;10024641;29;20057;-82
2023/09/03 11:39:32;;;;;;;1.35;1.25;;;;;;;;;;10013224;29;20397;-81
2023/09/03 11:44:37;;;;;;;1.15;1.05;;;;;;;;;;10016361;29;20052;-81
2023/09/03 11:49:45;;;;;;;1.47;0.93;;;;;;;;;;10027311;29;20543;-82
2023/09/03 11:54:48;;;;;;;1.50;1.40;;;;;;;;;;10048195;29;20102;-82
2023/09/03 11:59:53;;;;;;;1.20;1.10;;;;;;;;;;10040422;29;20060;-82
2023/09/03 12:04:57;;;;;;;0.83;0.83;;;;;;;;;;10048495;29;20129;-82
2023/09/03 12:10:00;;;;;;;1.30;1.20;;;;;;;;;;10041791;29;20135;-82
2023/09/03 12:15:18;;;;;;;1.50;1.00;;;;;;;;;;10047840;29;20042;-82
2023/09/03 12:20:35;;;;;;;2.25;1.08;;;;;;;;;;10043276;29;20063;-81
2023/09/03 12:25:39;;;;;;;1.10;1.00;;;;;;;;;;10049852;29;20052;-81
2023/09/03 12:31:00;;;;;;;1.33;1.00;;;;;;;;;;10049808;29;20081;-81
2023/09/03 12:36:08;;;;;;;0.90;0.80;;;;;;;;;;10044332;29;20136;-82
2023/09/03 12:41:11;;;;;;;1.58;0.95;;;;;;;;;;10049583;29;20761;-81
2023/09/03 12:46:16;;;;;;;1.00;0.80;;;;;;;;;;10051891;29;20069;-82
2023/09/03 12:51:20;;;;;;;1.20;1.10;;;;;;;;;;10047386;29;20057;-81
2023/09/03 12:56:24;;;;;;;1.17;1.05;;;;;;;;;;10054555;29;20152;-81
2023/09/03 13:01:29;;;;;;;1.25;1.15;;;;;;;;;;10049385;29;20065;-82
2023/09/03 13:06:32;;;;;;;1.75;1.20;;;;;;;;;;10041653;29;20041;-82
2023/09/03 13:11:36;;;;;;;1.30;1.15;;;;;;;;;;10056034;29;20129;-82
2023/09/03 13:16:40;;;;;;;1.13;1.02;;;;;;;;;;10039371;29;20473;-81
2023/09/03 13:21:44;;;;;;;1.00;0.90;;;;;;;;;;10034754;29;20436;-81
2023/09/03 14:50:59;;;;;;;0.80;0.80;;;;;;;;;;10576450;27;20865;-84
2023/09/03 14:56:02;;;;;;;1.08;0.88;;;;;;;;;;10530589;28;20040;-85
2023/09/03 15:01:13;;;;;;;1.35;1.25;;;;;;;;;;10533463;27;20042;-83
2023/09/03 15:06:18;;;;;;;1.10;1.00;;;;;;;;;;10541699;28;20130;-83
2023/09/03 15:11:21;;;;;;;1.13;1.03;;;;;;;;;;10521796;27;20132;-84
2023/09/03 15:16:24;;;;;;;1.10;1.00;;;;;;;;;;10508158;28;20041;-82
2023/09/03 15:21:29;;;;;;;1.05;0.98;;;;;;;;;;10517044;28;20163;-83
2023/09/03 15:26:32;;;;;;;1.00;0.90;;;;;;;;;;10518431;28;20036;-84
2023/09/03 15:31:36;;;;;;;1.23;1.13;;;;;;;;;;10530021;28;20383;-82
2023/09/03 15:36:41;;;;;;;1.05;0.98;;;;;;;;;;10525592;28;20088;-83
2023/09/03 15:41:45;;;;;;;1.20;1.00;;;;;;;;;;10545961;27;20042;-83
2023/09/03 15:46:48;;;;;;;1.25;1.05;;;;;;;;;;10524451;28;20032;-83
2023/09/03 15:51:53;;;;;;;1.35;1.20;;;;;;;;;;10540275;28;20068;-83
2023/09/03 15:56:56;;;;;;;1.40;1.30;;;;;;;;;;10523251;27;20520;-84
2023/09/03 16:02:00;;;;;;;1.10;1.00;;;;;;;;;;10509381;28;20065;-83
2023/09/03 16:07:05;;;;;;;1.57;1.37;;;;;;;;;;10517398;28;20028;-84
2023/09/03 16:12:08;;;;;;;1.30;1.20;;;;;;;;;;10501547;28;20531;-83
2023/09/03 16:17:12;;;;;;;1.48;1.35;;;;;;;;;;10509293;28;20059;-84
2023/09/03 16:22:16;;;;;;;1.55;1.42;;;;;;;;;;10493470;28;20140;-83
2023/09/03 16:27:20;;;;;;;1.70;1.30;;;;;;;;;;10494116;28;20060;-83
2023/09/03 16:32:23;;;;;;;1.80;1.63;;;;;;;;;;10487465;28;20052;-84
2023/09/03 16:37:28;;;;;;;1.20;1.10;;;;;;;;;;10494586;28;20683;-84
2023/09/03 16:42:31;;;;;;;1.93;1.30;;;;;;;;;;10482645;28;20049;-84
2023/09/03 16:47:35;;;;;;;1.13;1.02;;;;;;;;;;10494116;28;20115;-84
2023/09/03 16:52:39;;;;;;;1.27;1.17;;;;;;;;;;10486044;28;20078;-84
2023/09/03 16:57:45;;;;;;;1.73;1.50;;;;;;;;;;10497204;28;20131;-84
2023/09/03 17:02:49;;;;;;;1.50;1.15;;;;;;;;;;10490335;28;20036;-84
2023/09/03 17:07:53;;;;;;;1.20;1.10;;;;;;;;;;10481498;28;20058;-84
2023/09/03 17:12:58;;;;;;;;;;;;;;;;;;10482063;28;20135;-84
2023/09/03 17:18:01;;;;;;;1.20;1.10;;;;;;;;;;10481255;28;20468;-84
2023/09/03 17:23:06;;;;;;;1.63;1.30;;;;;;;;;;10481757;28;20101;-84
2023/09/03 17:28:10;;;;;;;;;;;;;;;;;;10494584;28;20083;-84
2023/09/03 17:44:40;;;;;;;1.88;1.48;;;;;;;;;;10586213;22;20036;-83
2023/09/03 17:49:43;;;;;;;2.15;1.13;;;;;;;;;;10535559;28;20036;-82
2023/09/03 17:54:47;;;;;;;1.92;1.42;;;;;;;;;;10536870;28;20050;-82
2023/09/03 17:59:51;;;;;;;2.03;1.80;;;;;;;;;;10555676;28;20032;-83
2023/09/03 18:04:55;;;;;;;4.03;1.30;;;;;;;;;;10532625;28;20066;-82
2023/09/03 18:09:59;;;;;;;3.75;1.73;;;;;;;;;;10554924;28;20044;-83
2023/09/03 18:15:04;;;;;;;3.15;1.77;;;;;;;;;;10548705;28;20085;-85
2023/09/03 18:20:08;;;;;;;2.00;1.77;;;;;;;;;;10557031;28;20403;-85
2023/09/03 18:25:11;;;;;;;1.65;1.55;;;;;;;;;;10535937;28;20069;-85
2023/09/03 18:30:16;;;;;;;4.75;2.00;;;;;;;;;;10538803;28;20259;-84
2023/09/03 18:35:20;;;;;;;3.33;1.75;;;;;;;;;;10535801;28;20032;-86
2023/09/03 18:40:23;;;;;;;2.42;1.58;;;;;;;;;;10557545;28;20064;-85
2023/09/03 18:45:28;;;;;;;2.58;1.55;;;;;;;;;;10544541;28;20135;-86
2023/09/03 18:50:34;;;;;;;3.17;1.92;;;;;;;;;;10525041;28;20105;-84
2023/09/03 18:55:38;;;;;;;4.07;1.80;;;;;;;;;;10515149;28;20123;-85
2023/09/03 19:00:42;;;;;;;3.85;1.90;;;;;;;;;;10510818;28;20078;-85
2023/09/03 19:05:47;;;;;;;3.55;1.65;;;;;;;;;;10502318;28;20090;-85
2023/09/03 19:10:55;;;;;;;4.53;1.90;;;;;;;;;;10527423;28;20032;-84
2023/09/03 19:16:00;;;;;;;3.90;2.05;;;;;;;;;;10503877;28;20065;-85
2023/09/03 19:21:04;;;;;;;2.17;1.80;;;;;;;;;;10523987;28;20126;-85
2023/09/03 19:26:09;;;;;;;2.28;1.60;;;;;;;;;;10523809;28;20033;-85
2023/09/03 19:31:15;;;;;;;1.73;1.63;;;;;;;;;;10510049;28;20047;-84
2023/09/03 19:36:18;;;;;;;1.67;1.58;;;;;;;;;;10505735;28;20058;-84
2023/09/03 19:41:22;;;;;;;2.65;1.70;;;;;;;;;;10525331;28;20062;-85
2023/09/03 19:46:27;;;;;;;3.08;2.00;;;;;;;;;;10495812;28;20059;-85
2023/09/03 19:52:01;;;;;;;1.77;1.55;;;;;;;;;;10518856;28;20067;-84
2023/09/03 19:57:05;;;;;;;1.95;1.77;;;;;;;;;;10514794;28;20052;-85
2023/09/03 20:02:10;;;;;;;1.88;1.73;;;;;;;;;;10516301;28;20498;-84
2023/09/03 20:07:13;;;;;;;2.15;1.80;;;;;;;;;;10502322;28;20048;-83
2023/09/03 20:12:16;;;;;;;1.85;1.60;;;;;;;;;;10503475;28;20139;-85
2023/09/03 20:17:21;;;;;;;1.95;1.77;;;;;;;;;;10505028;28;20052;-84
2023/09/03 20:22:24;;;;;;;2.13;1.80;;;;;;;;;;10498373;28;20044;-84
2023/09/03 20:27:28;;;;;;;2.78;1.67;;;;;;;;;;10524243;28;20094;-84
2023/09/03 20:32:33;;;;;;;2.20;1.80;;;;;;;;;;10496920;28;20960;-84
2023/09/03 20:37:46;;;;;;;2.75;1.70;;;;;;;;;;10505957;28;20044;-85
2023/09/03 20:42:49;;;;;;;1.98;1.73;;;;;;;;;;10513261;28;20583;-84
2023/09/03 20:47:54;;;;;;;3.63;2.05;;;;;;;;;;10511249;28;20115;-84
2023/09/03 20:52:57;;;;;;;1.85;1.63;;;;;;;;;;10500619;28;20661;-84
2023/09/03 20:58:00;;;;;;;2.58;1.77;;;;;;;;;;10503258;28;20065;-85
2023/09/03 21:03:06;;;;;;;3.50;1.60;;;;;;;;;;10496448;28;20067;-84
2023/09/03 21:08:09;;;;;;;2.77;1.80;;;;;;;;;;10519657;28;20036;-85
2023/09/03 21:13:12;;;;;;;2.30;1.63;;;;;;;;;;10497695;28;20666;-85
2023/09/03 21:18:17;;;;;;;2.42;1.63;;;;;;;;;;10501463;28;20036;-85
2023/09/03 21:23:21;;;;;;;1.95;1.63;;;;;;;;;;10502156;28;20417;-84
2023/09/03 21:28:25;;;;;;;2.75;1.80;;;;;;;;;;10513055;28;20119;-84
2023/09/03 21:33:29;;;;;;;1.83;1.73;;;;;;;;;;10494894;28;20063;-83
2023/09/03 21:38:33;;;;;;;2.40;1.30;;;;;;;;;;10521668;28;20044;-83
2023/09/03 21:43:36;;;;;;;5.93;1.83;;;;;;;;;;10522465;28;20527;-83
2023/09/03 21:48:41;;;;;;;2.47;1.88;;;;;;;;;;10497566;28;20131;-82
2023/09/03 21:53:44;;;;;;;2.40;1.65;;;;;;;;;;10511341;28;20535;-82
2023/09/03 21:58:48;;;;;;;1.70;1.60;;;;;;;;;;10498989;28;20064;-82
2023/09/03 22:03:52;;;;;;;1.58;1.48;;;;;;;;;;10516153;28;20067;-82
2023/09/03 22:08:57;;;;;;;1.50;1.40;;;;;;;;;;10493896;28;20557;-82
2023/09/03 22:14:01;;;;;;;2.28;1.40;;;;;;;;;;10494804;28;20135;-82
2023/09/03 22:19:06;;;;;;;1.50;1.40;;;;;;;;;;10500117;28;20158;-83
2023/09/03 22:24:15;;;;;;;1.60;1.40;;;;;;;;;;10506228;28;20445;-83
2023/09/03 22:29:18;;;;;;;2.38;1.67;;;;;;;;;;10508346;28;20058;-83
2023/09/03 22:34:22;;;;;;;2.65;1.60;;;;;;;;;;10523190;28;20412;-82
2023/09/03 22:39:26;;;;;;;2.38;1.70;;;;;;;;;;10525642;28;20066;-82
2023/09/03 22:44:29;;;;;;;2.40;1.85;;;;;;;;;;10498166;28;20044;-82
2023/09/03 22:49:34;;;;;;;1.80;1.55;;;;;;;;;;10524855;28;20118;-83
2023/09/03 22:54:37;;;;;;;2.00;1.45;;;;;;;;;;10519574;28;20124;-83
2023/09/03 22:59:40;;;;;;;1.80;1.67;;;;;;;;;;10524746;28;20490;-83
2023/09/03 23:04:45;;;;;;;5.72;1.92;;;;;;;;;;10524452;28;20123;-83
2023/09/03 23:09:52;;;;;;;1.92;1.45;;;;;;;;;;10507133;28;20527;-83
2023/09/03 23:14:55;;;;;;;2.53;1.63;;;;;;;;;;10524125;28;20051;-83
2023/09/03 23:20:04;;;;;;;1.55;1.35;;;;;;;;;;10524454;28;20716;-83
2023/09/03 23:25:08;;;;;;;2.58;1.70;;;;;;;;;;10506023;28;20412;-83
2023/09/03 23:30:12;;;;;;;2.38;1.55;;;;;;;;;;10523967;28;20079;-83
2023/09/03 23:35:17;;;;;;;1.83;1.50;;;;;;;;;;10521933;28;20651;-83
2023/09/03 23:40:20;;;;;;;4.00;1.58;;;;;;;;;;10525659;28;20079;-84
2023/09/03 23:45:23;;;;;;;1.85;1.50;;;;;;;;;;10505384;28;20071;-83
2023/09/03 23:50:28;;;;;;;3.42;1.50;;;;;;;;;;10526020;28;20101;-83
2023/09/03 23:55:32;;;;;;;2.95;1.50;;;;;;;;;;10498127;28;20047;-83
